createdAt,value
2023-02-02T00:00:52.898Z,5.53
2023-02-02T00:02:24.839Z,5.51
2023-02-02T00:03:57.439Z,5.52
2023-02-02T00:05:29.347Z,5.50
2023-02-02T00:07:01.739Z,5.48
2023-02-02T00:08:36.067Z,5.41
2023-02-02T00:10:09.889Z,5.39
2023-02-02T00:11:42.412Z,5.37
2023-02-02T00:13:14.649Z,5.38
2023-02-02T00:14:46.460Z,5.36
2023-02-02T00:16:27.533Z,5.38
2023-02-02T00:17:59.466Z,5.35
2023-02-02T00:19:31.904Z,5.38
2023-02-02T00:21:03.887Z,5.35
2023-02-02T00:22:35.740Z,5.34
2023-02-02T00:24:08.804Z,5.32
2023-02-02T00:27:16.500Z,5.31
2023-02-02T00:28:48.502Z,5.28
2023-02-02T00:30:20.479Z,5.30
2023-02-02T00:31:52.416Z,5.30
2023-02-02T00:33:24.346Z,5.28
2023-02-02T00:34:56.104Z,5.21
2023-02-02T00:36:27.973Z,5.25
2023-02-02T00:37:59.761Z,5.25
2023-02-02T00:39:31.572Z,5.18
2023-02-02T00:42:43.997Z,5.18
2023-02-02T00:44:34.475Z,5.20
2023-02-02T00:46:06.423Z,5.20
2023-02-02T00:47:38.341Z,5.21
2023-02-02T00:49:10.353Z,5.18
2023-02-02T00:50:42.147Z,5.18
2023-02-02T00:52:14.071Z,5.20
2023-02-02T00:53:45.883Z,5.18
2023-02-02T00:55:17.880Z,5.17
2023-02-02T00:56:49.800Z,5.16
2023-02-02T00:58:21.778Z,5.16
2023-02-02T00:59:53.525Z,5.15
2023-02-02T01:01:25.581Z,5.14
2023-02-02T01:02:58.274Z,5.12
2023-02-02T01:04:30.117Z,4.95
2023-02-02T01:06:01.944Z,4.89
2023-02-02T01:07:33.735Z,4.85
2023-02-02T01:09:05.518Z,4.85
2023-02-02T01:10:37.449Z,4.84
2023-02-02T01:12:09.389Z,4.83
2023-02-02T01:13:41.219Z,4.81
2023-02-02T01:15:13.385Z,4.78
2023-02-02T01:16:45.278Z,4.73
2023-02-02T01:18:17.261Z,4.65
2023-02-02T01:19:49.422Z,4.47
2023-02-02T01:21:21.454Z,4.39
2023-02-02T01:22:53.367Z,4.33
2023-02-02T01:24:25.410Z,4.25
2023-02-02T01:25:57.829Z,4.14
2023-02-02T01:27:29.642Z,4.10
2023-02-02T01:29:01.572Z,4.08
2023-02-02T01:30:33.400Z,4.06
2023-02-02T01:32:05.504Z,4.03
2023-02-02T01:33:37.897Z,3.98
2023-02-02T01:35:12.794Z,3.94
2023-02-02T01:36:44.647Z,3.88
2023-02-02T01:38:16.523Z,3.81
2023-02-02T01:39:48.826Z,3.76
2023-02-02T01:41:22.048Z,3.68
2023-02-02T01:42:54.169Z,3.62
2023-02-02T01:44:32.206Z,3.54
2023-02-02T01:46:04.067Z,3.45
2023-02-02T01:47:38.014Z,3.38
2023-02-02T01:49:11.414Z,3.30
2023-02-02T01:50:43.372Z,3.21
2023-02-02T01:52:15.666Z,3.14
2023-02-02T01:53:48.184Z,3.08
2023-02-02T01:55:20.928Z,3.01
2023-02-02T01:56:55.672Z,2.97
2023-02-02T01:58:31.065Z,2.91
2023-02-02T02:00:04.397Z,2.82
2023-02-02T02:01:36.287Z,2.75
2023-02-02T02:03:09.570Z,2.72
2023-02-02T02:04:42.686Z,2.68
2023-02-02T02:06:17.566Z,2.62
2023-02-02T02:07:49.717Z,2.59
2023-02-02T02:09:21.684Z,2.55
2023-02-02T02:10:54.483Z,2.52
2023-02-02T02:12:26.370Z,2.51
2023-02-02T02:15:56.034Z,2.52
2023-02-02T02:17:27.860Z,2.43
2023-02-02T02:18:59.802Z,2.33
2023-02-02T02:21:11.684Z,2.25
2023-02-02T02:23:20.889Z,2.13
2023-02-02T02:25:20.212Z,2.13
2023-02-02T02:27:10.928Z,2.14
2023-02-02T02:28:51.884Z,2.14
2023-02-02T02:30:42.346Z,2.13
2023-02-02T02:32:20.464Z,2.10
2023-02-02T02:34:01.244Z,2.07
2023-02-02T02:35:43.506Z,2.02
2023-02-02T02:37:17.769Z,2.01
2023-02-02T02:38:52.640Z,2.00
2023-02-02T02:40:38.370Z,1.97
2023-02-02T02:42:11.790Z,1.94
2023-02-02T02:43:48.572Z,1.89
2023-02-02T02:45:20.493Z,1.86
2023-02-02T02:46:52.314Z,1.88
2023-02-02T02:48:24.307Z,1.96
2023-02-02T02:49:56.113Z,2.04
2023-02-02T02:51:44.057Z,2.12
2023-02-02T02:53:18.096Z,2.16
2023-02-02T02:54:50.712Z,2.06
2023-02-02T02:56:38.638Z,1.98
2023-02-02T02:58:12.263Z,1.92
2023-02-02T02:59:51.362Z,1.81
2023-02-02T03:01:29.010Z,1.76
2023-02-02T03:03:03.885Z,1.69
2023-02-02T03:04:40.382Z,1.63
2023-02-02T03:06:15.271Z,1.63
2023-02-02T03:08:05.249Z,1.62
2023-02-02T03:09:37.802Z,1.64
2023-02-02T03:11:10.705Z,1.66
2023-02-02T03:12:49.433Z,1.67
2023-02-02T03:14:21.307Z,1.68
2023-02-02T03:15:53.404Z,1.66
2023-02-02T03:17:27.301Z,1.65
2023-02-02T03:18:59.192Z,1.66
2023-02-02T03:20:30.984Z,1.68
2023-02-02T03:22:03.527Z,1.69
2023-02-02T03:23:35.436Z,1.66
2023-02-02T03:25:07.830Z,1.58
2023-02-02T03:26:39.716Z,1.52
2023-02-02T03:28:11.621Z,1.44
2023-02-02T03:29:43.485Z,1.41
2023-02-02T03:31:15.497Z,1.42
2023-02-02T03:32:47.424Z,1.44
2023-02-02T03:34:19.198Z,1.36
2023-02-02T03:35:51.060Z,1.39
2023-02-02T03:37:22.863Z,1.39
2023-02-02T03:38:54.710Z,1.38
2023-02-02T03:40:26.567Z,1.31
2023-02-02T03:41:58.418Z,1.29
2023-02-02T03:43:30.448Z,1.21
2023-02-02T03:45:02.309Z,1.23
2023-02-02T03:46:34.332Z,1.27
2023-02-02T03:49:49.463Z,1.32
2023-02-02T03:51:21.411Z,1.36
2023-02-02T03:52:54.156Z,1.35
2023-02-02T03:54:25.950Z,1.44
2023-02-02T03:55:57.807Z,1.45
2023-02-02T03:57:29.591Z,1.29
2023-02-02T03:59:01.405Z,1.35
2023-02-02T04:00:33.254Z,1.40
2023-02-02T04:02:05.111Z,1.47
2023-02-02T04:03:36.897Z,1.50
2023-02-02T04:05:08.965Z,1.51
2023-02-02T04:06:40.957Z,1.55
2023-02-02T04:08:12.843Z,1.56
2023-02-02T04:09:44.607Z,1.60
2023-02-02T04:11:17.055Z,1.70
2023-02-02T04:12:48.952Z,1.81
2023-02-02T04:14:20.820Z,2.06
2023-02-02T04:15:59.418Z,2.10
2023-02-02T04:17:31.193Z,2.20
2023-02-02T04:19:03.505Z,2.26
2023-02-02T04:20:35.290Z,2.30
2023-02-02T04:22:07.229Z,2.30
2023-02-02T06:37:49.586Z,2.78
2023-02-02T06:39:21.457Z,2.82
2023-02-02T06:40:53.329Z,2.84
2023-02-02T06:42:25.176Z,2.88
2023-02-02T06:43:57.051Z,2.88
2023-02-02T06:45:29.337Z,2.89
2023-02-02T06:47:01.131Z,2.89
2023-02-02T06:48:33.086Z,2.90
2023-02-02T06:50:05.075Z,2.92
2023-02-02T06:51:36.966Z,2.92
2023-02-02T06:53:08.851Z,2.93
2023-02-02T06:54:40.736Z,2.91
2023-02-02T06:56:13.224Z,2.88
2023-02-02T06:57:45.420Z,2.88
2023-02-02T06:59:17.365Z,2.88
2023-02-02T07:00:49.360Z,2.91
2023-02-02T07:02:23.705Z,2.95
2023-02-02T07:03:55.577Z,3.00
2023-02-02T07:05:30.397Z,3.02
2023-02-02T07:07:02.617Z,3.08
2023-02-02T07:08:34.470Z,3.13
2023-02-02T07:10:06.714Z,3.20
2023-02-02T07:11:40.446Z,3.28
2023-02-02T07:13:14.144Z,3.36
2023-02-02T07:14:46.133Z,3.48
2023-02-02T07:16:18.125Z,3.61
2023-02-02T07:17:49.960Z,3.73
2023-02-02T07:19:22.981Z,3.86
2023-02-02T07:20:54.837Z,3.99
2023-02-02T07:22:26.909Z,4.12
2023-02-02T07:23:58.776Z,4.25
2023-02-02T07:25:30.792Z,4.37
2023-02-02T07:27:02.750Z,4.47
2023-02-02T07:28:34.815Z,4.57
2023-02-02T07:30:07.017Z,4.66
2023-02-02T07:31:38.928Z,4.75
2023-02-02T07:33:10.924Z,4.83
2023-02-02T07:34:42.815Z,4.88
2023-02-02T07:36:18.275Z,4.96
2023-02-02T07:37:54.113Z,5.02
2023-02-02T07:39:26.173Z,5.09
2023-02-02T07:41:00.967Z,5.18
2023-02-02T07:42:33.009Z,5.26
2023-02-02T07:44:05.423Z,5.32
2023-02-02T07:45:37.916Z,5.38
2023-02-02T07:47:09.933Z,5.43
2023-02-02T07:48:41.763Z,5.50
2023-02-02T07:50:13.551Z,5.56
2023-02-02T07:51:47.807Z,5.65
2023-02-02T07:53:23.848Z,5.71
2023-02-02T07:55:12.610Z,5.78
2023-02-02T07:56:46.164Z,5.86
2023-02-02T07:58:17.997Z,5.93
2023-02-02T07:59:50.803Z,6.02
2023-02-02T08:01:23.362Z,6.11
2023-02-02T08:02:55.566Z,6.19
2023-02-02T08:04:27.880Z,6.29
2023-02-02T08:05:59.995Z,6.37
2023-02-02T08:07:32.688Z,6.42
2023-02-02T08:09:05.489Z,6.49
2023-02-02T08:10:37.313Z,6.60
2023-02-02T08:12:09.176Z,6.67
2023-02-02T08:13:41.620Z,6.75
2023-02-02T08:15:13.622Z,6.84
2023-02-02T08:16:45.450Z,6.92
2023-02-02T08:18:17.442Z,7.01
2023-02-02T08:19:49.532Z,7.08
2023-02-02T08:21:21.731Z,7.17
2023-02-02T08:22:53.577Z,7.24
2023-02-02T08:24:25.538Z,7.28
2023-02-02T08:26:11.176Z,7.34
2023-02-02T08:27:43.100Z,7.36
2023-02-02T08:29:17.622Z,7.37
2023-02-02T08:30:49.650Z,7.39
2023-02-02T08:32:21.683Z,7.43
2023-02-02T08:33:58.512Z,7.45
2023-02-02T08:35:30.457Z,7.48
2023-02-02T08:37:02.330Z,7.48
2023-02-02T08:38:34.210Z,7.49
2023-02-02T08:40:06.489Z,7.53
2023-02-02T08:41:38.762Z,7.56
2023-02-02T08:43:10.750Z,7.59
2023-02-02T08:45:59.466Z,7.61
2023-02-02T08:46:34.711Z,7.65
2023-02-02T08:48:11.983Z,7.68
2023-02-02T08:49:45.360Z,7.74
2023-02-02T08:51:21.577Z,7.79
2023-02-02T08:54:33.242Z,7.92
2023-02-02T08:56:06.978Z,8.02
2023-02-02T08:57:38.768Z,8.13
2023-02-02T08:59:10.659Z,8.22
2023-02-02T09:00:42.608Z,8.25
2023-02-02T09:02:14.634Z,8.31
2023-02-02T09:03:46.583Z,8.37
2023-02-02T09:05:19.164Z,8.48
2023-02-02T09:06:51.169Z,8.56
2023-02-02T09:08:23.221Z,8.61
2023-02-02T09:09:58.443Z,8.66
2023-02-02T09:11:30.380Z,8.73
2023-02-02T09:13:02.376Z,8.79
2023-02-02T09:14:34.301Z,8.86
2023-02-02T09:16:06.972Z,8.90
2023-02-02T09:17:38.945Z,8.93
2023-02-02T09:19:11.578Z,8.96
2023-02-02T09:20:43.904Z,9.00
2023-02-02T09:23:50.240Z,9.18
2023-02-02T09:25:22.317Z,9.28
2023-02-02T09:26:54.605Z,9.40
2023-02-02T09:28:26.547Z,9.42
2023-02-02T09:29:58.628Z,9.46
2023-02-02T09:31:31.200Z,9.45
2023-02-02T09:33:03.103Z,9.48
2023-02-02T09:34:34.987Z,9.45
2023-02-02T09:36:09.986Z,9.46
2023-02-02T09:37:41.888Z,9.47
2023-02-02T09:39:15.306Z,9.46
2023-02-02T09:40:47.232Z,9.48
2023-02-02T09:42:29.517Z,9.52
2023-02-02T09:44:19.878Z,9.52
2023-02-02T09:45:51.838Z,9.51
2023-02-02T09:47:23.786Z,9.49
2023-02-02T09:49:08.933Z,9.52
2023-02-02T09:50:44.909Z,9.51
2023-02-02T09:52:18.046Z,9.51
2023-02-02T09:54:00.533Z,9.48
2023-02-02T09:55:39.818Z,9.48
2023-02-02T09:58:55.699Z,9.57
2023-02-02T10:00:56.952Z,9.58
2023-02-02T10:02:39.203Z,9.58
2023-02-02T10:04:19.321Z,9.65
2023-02-02T10:05:55.871Z,9.60
2023-02-02T10:07:31.601Z,9.59
2023-02-02T10:09:06.977Z,9.59
2023-02-02T10:10:42.230Z,9.61
2023-02-02T10:12:16.699Z,9.73
2023-02-02T10:13:49.152Z,9.78
2023-02-02T10:15:27.249Z,9.85
2023-02-02T10:17:01.168Z,9.87
2023-02-02T10:18:39.956Z,9.88
2023-02-02T10:20:20.807Z,9.92
2023-02-02T10:21:59.174Z,9.92
2023-02-02T10:23:31.927Z,9.89
2023-02-02T10:25:03.974Z,9.82
2023-02-02T10:26:56.256Z,9.83
2023-02-02T10:28:37.267Z,9.80
2023-02-02T10:30:16.146Z,9.78
2023-02-02T10:31:50.740Z,9.80
2023-02-02T10:33:41.037Z,9.77
2023-02-02T10:35:24.607Z,9.88
2023-02-02T10:37:14.735Z,10.01
2023-02-02T10:39:01.293Z,10.17
2023-02-02T10:40:35.908Z,10.31
2023-02-02T10:42:14.667Z,10.37
2023-02-02T10:43:49.329Z,10.41
2023-02-02T10:45:21.227Z,10.42
2023-02-02T10:46:54.099Z,10.39
2023-02-02T10:48:32.986Z,10.40
2023-02-02T10:50:07.719Z,10.29
2023-02-02T10:51:41.010Z,10.28
2023-02-02T10:53:13.833Z,10.26
2023-02-02T10:54:55.923Z,10.16
2023-02-02T10:56:32.111Z,10.14
2023-02-02T10:58:06.806Z,10.12
2023-02-02T10:59:59.049Z,10.19
2023-02-02T11:01:31.045Z,10.12
2023-02-02T11:03:05.083Z,10.09
2023-02-02T11:04:55.383Z,10.14
2023-02-02T11:06:45.595Z,10.15
2023-02-02T11:08:21.405Z,10.20
2023-02-02T11:09:53.848Z,10.21
2023-02-02T11:11:27.972Z,10.18
2023-02-02T11:13:02.132Z,10.16
2023-02-02T11:14:45.302Z,10.10
2023-02-02T11:16:17.751Z,10.06
2023-02-02T11:17:52.635Z,10.06
2023-02-02T11:19:27.035Z,10.04
2023-02-02T11:20:58.834Z,10.01
2023-02-02T11:22:31.009Z,10.04
2023-02-02T11:24:04.212Z,10.01
2023-02-02T11:25:39.611Z,10.02
2023-02-02T11:27:21.899Z,9.98
2023-02-02T11:28:55.112Z,9.91
2023-02-02T11:30:31.912Z,9.71
2023-02-02T11:32:22.746Z,9.62
2023-02-02T11:33:54.809Z,9.63
2023-02-02T11:35:27.617Z,9.62
2023-02-02T11:37:00.698Z,9.66
2023-02-02T11:38:32.571Z,9.54
2023-02-02T11:40:24.733Z,9.31
2023-02-02T11:42:00.950Z,9.09
2023-02-02T11:43:42.082Z,8.73
2023-02-02T11:45:18.398Z,8.71
2023-02-02T11:46:50.354Z,8.60
2023-02-02T11:48:23.514Z,8.47
2023-02-02T11:49:55.921Z,8.26
2023-02-02T11:51:31.126Z,8.16
2023-02-02T11:53:03.005Z,8.03
2023-02-02T11:54:35.581Z,8.08
2023-02-02T11:56:26.151Z,8.06
2023-02-02T11:58:16.960Z,7.91
2023-02-02T11:59:52.412Z,7.79
2023-02-02T12:01:35.022Z,7.67
2023-02-02T12:03:20.901Z,7.49
2023-02-02T12:04:54.106Z,7.41
2023-02-02T12:06:27.324Z,7.44
2023-02-02T12:07:59.356Z,7.43
2023-02-02T12:09:31.231Z,7.38
2023-02-02T12:11:07.648Z,7.32
2023-02-02T12:12:43.094Z,7.15
2023-02-02T12:14:27.509Z,7.08
2023-02-02T12:15:59.504Z,7.08
2023-02-02T12:17:35.623Z,6.83
2023-02-02T12:19:20.941Z,6.75
2023-02-02T12:21:03.786Z,6.63
2023-02-02T12:22:54.619Z,6.60
2023-02-02T12:24:31.694Z,6.57
2023-02-02T12:26:24.257Z,6.45
2023-02-02T12:28:06.205Z,6.34
2023-02-02T12:29:41.928Z,6.06
2023-02-02T12:31:27.087Z,6.00
2023-02-02T12:33:02.452Z,5.88
2023-02-02T12:34:44.468Z,5.75
2023-02-02T12:36:19.876Z,5.71
2023-02-02T12:37:58.295Z,5.53
2023-02-02T12:39:48.858Z,5.60
2023-02-02T12:41:46.727Z,5.50
2023-02-02T12:43:39.694Z,5.23
2023-02-02T12:45:17.448Z,5.17
2023-02-02T12:47:04.461Z,5.09
2023-02-02T12:48:51.890Z,5.17
2023-02-02T12:50:26.894Z,5.18
2023-02-02T12:52:17.733Z,5.24
2023-02-02T12:54:34.866Z,5.12
2023-02-02T12:56:12.111Z,5.02
2023-02-02T12:57:49.542Z,4.96
2023-02-02T12:59:29.000Z,4.97
2023-02-02T13:01:04.146Z,4.84
2023-02-02T13:02:40.939Z,4.68
2023-02-02T13:04:12.983Z,4.56
2023-02-02T13:06:05.994Z,4.53
2023-02-02T13:07:44.742Z,4.61
2023-02-02T13:09:19.982Z,4.60
2023-02-02T13:10:55.846Z,4.48
2023-02-02T13:12:27.713Z,4.51
2023-02-02T13:14:12.831Z,4.46
2023-02-02T13:15:46.884Z,4.46
2023-02-02T13:17:21.204Z,4.47
2023-02-02T13:18:57.249Z,4.51
2023-02-02T13:20:36.186Z,4.52
2023-02-02T13:22:11.164Z,4.49
2023-02-02T13:23:52.690Z,4.43
2023-02-02T13:25:29.443Z,4.41
2023-02-02T13:27:01.897Z,4.44
2023-02-02T13:28:37.160Z,4.44
2023-02-02T13:30:14.508Z,4.45
2023-02-02T13:31:49.497Z,4.45
2023-02-02T13:33:25.442Z,4.31
2023-02-02T13:35:11.566Z,4.30
2023-02-02T13:36:44.451Z,4.32
2023-02-02T13:38:26.152Z,4.34
2023-02-02T13:40:05.732Z,4.24
2023-02-02T13:41:37.569Z,4.23
2023-02-02T13:43:09.439Z,4.29
2023-02-02T13:44:41.649Z,4.22
2023-02-02T13:46:34.665Z,4.16
2023-02-02T13:48:15.429Z,4.10
2023-02-02T13:49:51.400Z,4.08
2023-02-02T13:51:29.077Z,4.03
2023-02-02T13:53:19.719Z,4.08
2023-02-02T13:54:57.535Z,4.07
2023-02-02T13:56:39.976Z,4.10
2023-02-02T13:58:16.691Z,4.12
2023-02-02T14:00:02.609Z,4.12
2023-02-02T14:01:34.687Z,4.02
2023-02-02T14:03:07.964Z,4.04
2023-02-02T14:04:39.802Z,4.07
2023-02-02T14:06:15.272Z,4.05
2023-02-02T14:07:47.473Z,4.05
2023-02-02T14:09:19.398Z,4.00
2023-02-02T14:10:54.284Z,3.96
2023-02-02T14:12:30.366Z,3.91
2023-02-02T14:14:33.264Z,3.93
2023-02-02T14:16:06.494Z,3.94
2023-02-02T14:17:38.425Z,3.93
2023-02-02T14:19:30.356Z,3.90
2023-02-02T14:21:02.218Z,3.82
2023-02-02T14:22:52.782Z,3.81
2023-02-02T14:24:27.354Z,3.77
2023-02-02T14:26:09.177Z,3.85
2023-02-02T14:27:42.168Z,3.92
2023-02-02T14:29:32.285Z,3.89
2023-02-02T14:31:18.075Z,3.95
2023-02-02T14:32:50.339Z,3.98
2023-02-02T14:34:31.351Z,3.96
2023-02-02T14:36:03.700Z,4.03
2023-02-02T14:37:35.575Z,4.07
2023-02-02T14:39:16.949Z,4.11
2023-02-02T14:40:53.939Z,4.16
2023-02-02T14:42:53.203Z,4.18
2023-02-02T14:44:25.074Z,4.21
2023-02-02T14:46:06.137Z,4.21
2023-02-02T14:47:43.857Z,4.24
2023-02-02T14:50:57.513Z,4.26
2023-02-02T14:52:29.365Z,4.25
2023-02-02T14:54:02.129Z,4.25
2023-02-02T14:55:34.422Z,4.29
2023-02-02T14:57:34.913Z,4.25
2023-02-02T14:59:07.830Z,4.30
2023-02-02T15:00:39.701Z,4.28
2023-02-02T15:02:14.158Z,4.32
2023-02-02T15:04:01.413Z,4.38
2023-02-02T15:05:39.190Z,4.33
2023-02-02T15:07:23.269Z,4.40
2023-02-02T16:38:41.835Z,3.75
2023-02-02T16:40:26.925Z,3.77
2023-02-02T16:42:35.468Z,3.73
2023-02-02T16:44:37.118Z,3.65
2023-02-02T16:46:10.182Z,3.47
2023-02-02T16:47:42.564Z,3.41
2023-02-02T16:49:19.511Z,3.39
2023-02-02T16:51:21.594Z,3.39
2023-02-02T16:52:56.999Z,3.50
2023-02-02T16:54:29.067Z,3.53
2023-02-02T16:56:01.931Z,3.56
2023-02-02T16:57:34.652Z,3.67
2023-02-02T16:59:22.338Z,3.83
2023-02-02T17:01:14.940Z,3.85
2023-02-02T17:02:49.207Z,3.82
2023-02-02T17:04:27.567Z,3.87
2023-02-02T17:06:00.835Z,3.90
2023-02-02T17:07:34.938Z,3.89
2023-02-02T17:09:37.704Z,3.93
2023-02-02T17:11:31.331Z,3.99
2023-02-02T17:13:24.693Z,3.85
2023-02-02T17:15:05.317Z,3.90
2023-02-02T17:16:37.489Z,3.87
2023-02-02T17:18:09.831Z,3.88
2023-02-02T17:19:42.155Z,3.91
2023-02-02T17:21:17.039Z,4.00
2023-02-02T17:22:51.602Z,4.04
2023-02-02T17:24:23.943Z,4.03
2023-02-02T17:25:58.718Z,4.12
2023-02-02T17:27:34.082Z,4.17
2023-02-02T17:29:06.299Z,4.18
2023-02-02T17:30:43.326Z,4.25
2023-02-02T17:32:15.489Z,4.22
2023-02-02T17:33:47.532Z,4.21
2023-02-02T17:35:22.665Z,4.20
2023-02-02T17:36:54.777Z,4.21
2023-02-02T17:38:28.170Z,4.28
2023-02-02T17:40:00.373Z,4.25
2023-02-02T17:41:32.816Z,4.28
2023-02-02T17:43:04.896Z,4.27
2023-02-02T17:44:36.894Z,4.26
2023-02-02T17:46:12.635Z,4.29
2023-02-02T17:47:47.910Z,4.21
2023-02-02T17:49:20.741Z,4.20
2023-02-02T17:50:52.918Z,4.26
2023-02-02T17:52:25.113Z,4.30
2023-02-02T17:54:00.271Z,4.26
2023-02-02T17:55:39.085Z,4.29
2023-02-02T17:57:11.074Z,4.32
2023-02-02T17:58:43.183Z,4.24
2023-02-02T18:00:17.188Z,4.30
2023-02-02T18:01:49.294Z,4.33
2023-02-02T18:03:27.967Z,4.43
2023-02-02T18:05:00.372Z,4.37
2023-02-02T18:08:04.576Z,4.49
2023-02-02T18:09:36.597Z,4.42
2023-02-02T18:11:12.628Z,4.41
2023-02-02T18:12:44.679Z,4.46
2023-02-02T18:14:16.717Z,4.47
2023-02-02T18:15:50.100Z,4.45
2023-02-02T18:17:22.235Z,4.49
2023-02-02T18:18:54.728Z,4.50
2023-02-02T18:20:26.708Z,4.40
2023-02-02T18:21:58.707Z,4.47
2023-02-02T18:23:30.736Z,4.44
2023-02-02T18:25:05.048Z,4.44
2023-02-02T18:26:37.155Z,4.45
2023-02-02T18:28:10.024Z,4.43
2023-02-02T18:29:42.598Z,4.42
2023-02-02T18:31:18.853Z,4.39
2023-02-02T18:32:50.928Z,4.45
2023-02-02T18:34:22.956Z,4.48
2023-02-02T18:35:54.916Z,4.43
2023-02-02T18:37:27.946Z,4.50
2023-02-02T18:39:00.096Z,4.50
2023-02-02T18:42:05.226Z,4.58
2023-02-02T18:43:37.312Z,4.55
2023-02-02T18:45:09.862Z,4.59
2023-02-02T18:46:41.914Z,4.56
2023-02-02T18:48:14.180Z,4.55
2023-02-02T18:49:46.867Z,4.53
2023-02-02T18:51:19.575Z,4.50
2023-02-02T18:52:51.708Z,4.47
2023-02-02T18:54:24.274Z,4.44
2023-02-02T18:55:56.337Z,4.40
2023-02-02T18:57:30.125Z,4.48
2023-02-02T18:59:02.425Z,4.44
2023-02-02T19:00:34.473Z,4.42
2023-02-02T19:02:06.977Z,4.35
2023-02-02T19:03:39.735Z,4.37
2023-02-02T19:05:30.322Z,4.37
2023-02-02T19:07:21.132Z,4.38
2023-02-02T19:08:55.003Z,4.35
2023-02-02T19:10:27.663Z,4.32
2023-02-02T19:11:59.866Z,4.32
2023-02-02T19:13:31.954Z,4.31
2023-02-02T19:15:11.434Z,4.36
2023-02-02T19:16:45.784Z,4.34
2023-02-02T19:18:20.365Z,4.33
2023-02-02T19:19:52.436Z,4.39
2023-02-02T19:21:25.902Z,4.38
2023-02-02T19:23:02.708Z,4.45
2023-02-02T19:24:39.831Z,4.43
2023-02-02T19:26:22.281Z,4.37
2023-02-02T19:27:54.630Z,4.32
2023-02-02T19:29:37.911Z,4.32
2023-02-02T19:31:14.852Z,4.31
2023-02-02T19:32:47.004Z,4.26
2023-02-02T19:34:22.452Z,4.33
2023-02-02T19:35:55.592Z,4.24
2023-02-02T19:37:32.463Z,4.29
2023-02-02T19:40:56.011Z,4.28
2023-02-02T19:42:28.965Z,4.34
2023-02-02T19:44:03.654Z,4.40
2023-02-02T19:45:36.061Z,4.44
2023-02-02T19:47:32.320Z,4.54
2023-02-02T19:49:24.391Z,4.56
2023-02-02T19:50:56.545Z,4.48
2023-02-02T19:52:28.998Z,4.49
2023-02-02T19:54:01.689Z,4.55
2023-02-02T19:55:36.794Z,4.57
2023-02-02T19:57:19.118Z,4.60
2023-02-02T19:58:51.270Z,4.57
2023-02-02T20:00:27.470Z,4.53
2023-02-02T20:02:19.263Z,4.57
2023-02-02T20:03:52.884Z,4.55
2023-02-02T20:05:38.493Z,4.60
2023-02-02T20:07:15.090Z,4.61
2023-02-02T20:08:47.198Z,4.55
2023-02-02T20:10:26.372Z,4.60
2023-02-02T20:11:58.718Z,4.57
2023-02-02T20:13:43.268Z,4.56
2023-02-02T20:15:36.270Z,4.52
2023-02-02T20:17:14.478Z,4.53
2023-02-02T20:18:51.061Z,4.51
2023-02-02T20:20:40.353Z,4.52
2023-02-02T20:22:33.875Z,4.58
2023-02-02T20:24:27.712Z,4.54
2023-02-02T20:26:03.041Z,4.46
2023-02-02T20:27:35.290Z,4.46
2023-02-02T20:29:43.572Z,4.52
2023-02-02T20:31:18.906Z,4.51
2023-02-02T20:32:55.639Z,4.57
2023-02-02T20:34:33.271Z,4.59
2023-02-02T20:36:32.491Z,4.59
2023-02-02T20:38:29.985Z,4.60
2023-02-02T20:40:22.985Z,4.56
2023-02-02T20:41:56.920Z,4.55
2023-02-02T20:43:28.963Z,4.55
2023-02-02T20:45:01.052Z,4.52
2023-02-02T20:46:33.176Z,4.55
2023-02-02T20:48:05.346Z,4.54
2023-02-02T20:49:37.972Z,4.56
2023-02-02T20:51:10.035Z,4.59
2023-02-02T20:52:42.296Z,4.58
2023-02-02T20:54:14.475Z,4.59
2023-02-02T20:55:46.546Z,4.60
2023-02-02T20:57:19.117Z,4.62
2023-02-02T20:58:51.766Z,4.63
2023-02-02T21:00:27.448Z,4.66
2023-02-02T21:02:00.074Z,4.67
2023-02-02T21:03:32.928Z,4.64
2023-02-02T21:05:05.303Z,4.62
2023-02-02T21:06:39.312Z,4.68
2023-02-02T21:08:11.481Z,4.68
2023-02-02T21:09:48.315Z,4.68
2023-02-02T21:11:20.337Z,4.65
2023-02-02T21:12:52.522Z,4.61
2023-02-02T21:14:24.534Z,4.61
2023-02-02T21:15:56.609Z,4.60
2023-02-02T21:17:28.737Z,4.59
2023-02-02T21:19:00.891Z,4.58
2023-02-02T21:20:33.323Z,4.54
2023-02-02T21:22:05.437Z,4.56
2023-02-02T21:23:37.459Z,4.55
2023-02-02T21:25:10.263Z,4.57
2023-02-02T21:26:42.811Z,4.56
2023-02-02T21:28:17.464Z,4.59
2023-02-02T21:29:49.475Z,4.57
2023-02-02T21:31:22.060Z,4.56
2023-02-02T21:32:54.271Z,4.60
2023-02-02T21:34:26.702Z,4.61
2023-02-02T21:36:33.548Z,4.61
2023-02-02T21:38:11.381Z,4.56
2023-02-02T21:39:53.667Z,4.50
2023-02-02T21:41:27.125Z,4.43
2023-02-02T21:43:06.057Z,4.32
2023-02-02T21:44:51.921Z,4.32
2023-02-02T21:46:30.551Z,4.30
2023-02-02T21:48:06.999Z,4.24
2023-02-02T21:49:39.191Z,4.26
2023-02-02T21:51:34.581Z,4.30
2023-02-02T21:53:36.082Z,4.26
2023-02-02T21:55:35.809Z,4.25
2023-02-02T21:57:21.812Z,4.20
2023-02-02T21:58:54.610Z,4.14
2023-02-02T22:00:33.392Z,4.15
2023-02-02T22:02:17.542Z,4.20
2023-02-02T22:03:50.584Z,4.11
2023-02-02T22:05:31.083Z,4.07
2023-02-02T22:07:16.336Z,4.20
2023-02-02T22:08:49.265Z,4.20
2023-02-02T22:10:21.225Z,4.20
2023-02-02T22:11:59.453Z,4.31
2023-02-02T22:15:17.173Z,4.36
2023-02-02T22:16:54.236Z,4.34
2023-02-02T22:18:27.059Z,4.36
2023-02-02T22:20:10.489Z,4.43
2023-02-02T22:21:42.580Z,4.37
2023-02-02T22:23:44.039Z,4.45
2023-02-02T22:25:18.733Z,4.42
2023-02-02T22:26:50.873Z,4.38
2023-02-02T22:28:26.393Z,4.43
2023-02-02T22:30:04.119Z,4.47
2023-02-02T22:31:36.191Z,4.36
2023-02-02T22:33:10.549Z,4.37
2023-02-02T22:34:42.535Z,4.38
2023-02-02T22:36:14.666Z,4.39
2023-02-02T22:37:46.722Z,4.39
2023-02-02T22:39:18.810Z,4.32
2023-02-02T22:40:51.845Z,4.32
2023-02-02T22:43:55.637Z,4.31
2023-02-02T22:45:28.198Z,4.31
2023-02-02T22:47:00.335Z,4.30
2023-02-02T22:48:32.446Z,4.29
2023-02-02T22:50:04.766Z,4.24
2023-02-02T22:51:36.935Z,4.22
2023-02-02T22:53:09.164Z,4.19
2023-02-02T22:54:41.230Z,4.14
2023-02-02T22:56:13.255Z,4.09
2023-02-02T22:57:45.452Z,4.04
2023-02-02T22:59:17.597Z,4.00
2023-02-02T23:00:49.675Z,3.97
2023-02-02T23:02:21.742Z,3.92
2023-02-02T23:03:53.854Z,3.86
2023-02-02T23:05:26.960Z,3.83
2023-02-02T23:06:59.066Z,3.76
2023-02-02T23:08:31.209Z,3.71
2023-02-02T23:10:03.423Z,3.67
2023-02-02T23:11:35.442Z,3.60
2023-02-02T23:13:07.686Z,3.53
2023-02-02T23:14:39.726Z,3.48
2023-02-02T23:16:11.841Z,3.42
2023-02-02T23:17:43.961Z,3.43
2023-02-02T23:19:16.033Z,3.42
2023-02-02T23:20:49.107Z,3.39
2023-02-02T23:22:21.141Z,3.39
2023-02-02T23:23:53.559Z,3.39
2023-02-02T23:25:25.737Z,3.40
2023-02-02T23:26:57.832Z,3.39
2023-02-02T23:28:29.817Z,3.38
2023-02-02T23:30:01.894Z,3.35
2023-02-02T23:31:34.124Z,3.29
2023-02-02T23:33:06.255Z,3.24
2023-02-02T23:34:38.261Z,3.20
2023-02-02T23:36:10.349Z,3.18
2023-02-02T23:37:42.444Z,3.18
2023-02-02T23:39:14.499Z,3.18
2023-02-02T23:40:46.546Z,3.21
2023-02-02T23:43:56.334Z,3.27
2023-02-02T23:45:28.574Z,3.30
2023-02-02T23:47:01.933Z,3.32
2023-02-02T23:48:35.236Z,3.35
2023-02-02T23:50:08.428Z,3.44
2023-02-02T23:51:40.764Z,3.59
2023-02-02T23:53:13.493Z,3.75
2023-02-02T23:54:45.519Z,3.85
2023-02-02T23:56:17.877Z,3.99
2023-02-02T23:57:49.976Z,4.08
2023-02-02T23:59:22.164Z,4.13
